sensor_id;sensor_type;location;lat;lon;timestamp;pressure;altitude;pressure_sealevel;temperature;humidity
8894;BME280;4483;48.622;9.230;2023-04-03T00:02:20;98599.16;;;4.83;82.83
8894;BME280;4483;48.622;9.230;2023-04-03T00:04:47;98595.75;;;4.77;82.12
8894;BME280;4483;48.622;9.230;2023-04-03T00:07:13;98602.56;;;4.79;83.27
8894;BME280;4483;48.622;9.230;2023-04-03T00:09:42;98607.69;;;4.78;83.05
8894;BME280;4483;48.622;9.230;2023-04-03T00:12:09;98593.22;;;4.75;83.04
8894;BME280;4483;48.622;9.230;2023-04-03T00:14:36;98603.44;;;4.75;82.90
8894;BME280;4483;48.622;9.230;2023-04-03T00:17:02;98600.03;;;4.75;82.85
8894;BME280;4483;48.622;9.230;2023-04-03T00:19:30;98597.44;;;4.76;83.63
8894;BME280;4483;48.622;9.230;2023-04-03T00:21:56;98588.13;;;4.75;83.07
8894;BME280;4483;48.622;9.230;2023-04-03T00:24:23;98590.63;;;4.78;83.23
8894;BME280;4483;48.622;9.230;2023-04-03T00:26:51;98591.47;;;4.80;83.26
8894;BME280;4483;48.622;9.230;2023-04-03T00:29:18;98593.19;;;4.78;83.36
8894;BME280;4483;48.622;9.230;2023-04-03T00:31:45;98590.63;;;4.78;83.00
8894;BME280;4483;48.622;9.230;2023-04-03T00:34:11;98590.63;;;4.78;83.05
8894;BME280;4483;48.622;9.230;2023-04-03T00:36:38;98597.44;;;4.76;82.99
8894;BME280;4483;48.622;9.230;2023-04-03T00:39:04;98601.72;;;4.76;83.07
8894;BME280;4483;48.622;9.230;2023-04-03T00:41:31;98588.91;;;4.82;83.16
8894;BME280;4483;48.622;9.230;2023-04-03T00:43:59;98599.13;;;4.82;82.83
8894;BME280;4483;48.622;9.230;2023-04-03T00:46:26;98599.19;;;4.73;82.17
8894;BME280;4483;48.622;9.230;2023-04-03T00:48:52;98596.63;;;4.71;83.11
8894;BME280;4483;48.622;9.230;2023-04-03T00:51:22;98594.09;;;4.70;82.99
8894;BME280;4483;48.622;9.230;2023-04-03T00:53:53;98600.03;;;4.69;82.69
8894;BME280;4483;48.622;9.230;2023-04-03T00:56:25;98595.78;;;4.69;83.28
8894;BME280;4483;48.622;9.230;2023-04-03T00:58:56;98596.66;;;4.65;82.41
8894;BME280;4483;48.622;9.230;2023-04-03T01:01:28;98590.72;;;4.62;82.40
8894;BME280;4483;48.622;9.230;2023-04-03T01:03:56;98593.28;;;4.63;82.84
8894;BME280;4483;48.622;9.230;2023-04-03T01:06:26;98591.56;;;4.64;82.91
8894;BME280;4483;48.622;9.230;2023-04-03T01:08:54;98595.81;;;4.63;82.87
8894;BME280;4483;48.622;9.230;2023-04-03T01:11:21;98600.09;;;4.64;82.86
8894;BME280;4483;48.622;9.230;2023-04-03T01:13:48;98598.38;;;4.65;82.63
8894;BME280;4483;48.622;9.230;2023-04-03T01:16:15;98598.38;;;4.63;82.60
8894;BME280;4483;48.622;9.230;2023-04-03T01:18:43;98598.38;;;4.63;82.52
8894;BME280;4483;48.622;9.230;2023-04-03T01:24:21;98595.84;;;4.65;82.67
8894;BME280;4483;48.622;9.230;2023-04-03T01:26:49;98603.47;;;4.66;83.06
8894;BME280;4483;48.622;9.230;2023-04-03T01:29:16;98600.06;;;4.66;83.12
8894;BME280;4483;48.622;9.230;2023-04-03T01:31:50;98594.13;;;4.64;82.71
8894;BME280;4483;48.622;9.230;2023-04-03T01:34:17;98593.28;;;4.66;83.14
8894;BME280;4483;48.622;9.230;2023-04-03T01:36:44;98599.22;;;4.65;82.98
8894;BME280;4483;48.622;9.230;2023-04-03T01:39:11;98595.00;;;4.63;83.00
8894;BME280;4483;48.622;9.230;2023-04-03T01:41:38;98597.53;;;4.63;82.63
8894;BME280;4483;48.622;9.230;2023-04-03T01:44:05;98595.88;;;4.59;82.67
8894;BME280;4483;48.622;9.230;2023-04-03T01:46:31;98601.00;;;4.56;82.61
8894;BME280;4483;48.622;9.230;2023-04-03T01:49:00;98597.59;;;4.51;81.71
8894;BME280;4483;48.622;9.230;2023-04-03T01:51:27;98595.06;;;4.49;82.66
8894;BME280;4483;48.622;9.230;2023-04-03T01:53:53;98596.78;;;4.46;82.73
8894;BME280;4483;48.622;9.230;2023-04-03T01:56:20;98592.53;;;4.46;82.88
8894;BME280;4483;48.622;9.230;2023-04-03T01:58:46;98596.75;;;4.47;82.81
8894;BME280;4483;48.622;9.230;2023-04-03T02:01:13;98595.91;;;4.45;82.77
8894;BME280;4483;48.622;9.230;2023-04-03T02:03:40;98605.28;;;4.46;82.56
8894;BME280;4483;48.622;9.230;2023-04-03T02:06:08;98605.28;;;4.45;82.54
8894;BME280;4483;48.622;9.230;2023-04-03T02:08:34;98604.47;;;4.41;82.19
8894;BME280;4483;48.622;9.230;2023-04-03T02:11:01;98602.72;;;4.42;82.81
8894;BME280;4483;48.622;9.230;2023-04-03T02:13:28;98603.63;;;4.39;82.33
8894;BME280;4483;48.622;9.230;2023-04-03T02:15:54;98606.16;;;4.39;82.40
8894;BME280;4483;48.622;9.230;2023-04-03T02:18:21;98608.72;;;4.39;82.13
8894;BME280;4483;48.622;9.230;2023-04-03T02:20:47;98609.56;;;4.35;81.86
8894;BME280;4483;48.622;9.230;2023-04-03T02:23:15;98609.56;;;4.35;82.45
8894;BME280;4483;48.622;9.230;2023-04-03T02:25:42;98604.47;;;4.35;81.86
8894;BME280;4483;48.622;9.230;2023-04-03T02:28:09;98612.16;;;4.32;81.74
8894;BME280;4483;48.622;9.230;2023-04-03T02:30:35;98607.88;;;4.34;82.12
8894;BME280;4483;48.622;9.230;2023-04-03T02:33:02;98609.59;;;4.34;81.91
8894;BME280;4483;48.622;9.230;2023-04-03T02:35:28;98607.88;;;4.33;82.20
8894;BME280;4483;48.622;9.230;2023-04-03T02:37:55;98601.09;;;4.29;81.85
8894;BME280;4483;48.622;9.230;2023-04-03T02:40:23;98606.22;;;4.30;82.33
8894;BME280;4483;48.622;9.230;2023-04-03T02:42:50;98611.28;;;4.27;81.91
8894;BME280;4483;48.622;9.230;2023-04-03T02:45:16;98613.84;;;4.27;81.75
8894;BME280;4483;48.622;9.230;2023-04-03T02:47:43;98607.91;;;4.25;81.77
8894;BME280;4483;48.622;9.230;2023-04-03T02:50:10;98611.28;;;4.29;81.98
8894;BME280;4483;48.622;9.230;2023-04-03T02:52:36;98612.16;;;4.32;82.20
8894;BME280;4483;48.622;9.230;2023-04-03T02:55:03;98612.16;;;4.32;81.28
8894;BME280;4483;48.622;9.230;2023-04-03T02:57:31;98609.59;;;4.29;81.18
8894;BME280;4483;48.622;9.230;2023-04-03T02:59:58;98616.38;;;4.29;81.56
8894;BME280;4483;48.622;9.230;2023-04-03T03:02:25;98613.03;;;4.27;80.86
8894;BME280;4483;48.622;9.230;2023-04-03T03:04:51;98618.09;;;4.25;80.62
8894;BME280;4483;48.622;9.230;2023-04-03T03:07:18;98617.25;;;4.23;80.80
8894;BME280;4483;48.622;9.230;2023-04-03T03:09:45;98612.19;;;4.20;80.90
8894;BME280;4483;48.622;9.230;2023-04-03T03:12:11;98607.09;;;4.17;80.91
8894;BME280;4483;48.622;9.230;2023-04-03T03:14:39;98607.91;;;4.18;81.27
8894;BME280;4483;48.622;9.230;2023-04-03T03:17:08;98607.94;;;4.16;81.16
8894;BME280;4483;48.622;9.230;2023-04-03T03:19:34;98601.13;;;4.20;81.00
8894;BME280;4483;48.622;9.230;2023-04-03T03:22:01;98606.22;;;4.20;80.72
8894;BME280;4483;48.622;9.230;2023-04-03T03:24:28;98601.13;;;4.17;80.96
8894;BME280;4483;48.622;9.230;2023-04-03T03:26:54;98610.50;;;4.13;80.89
8894;BME280;4483;48.622;9.230;2023-04-03T03:29:21;98602.84;;;4.13;80.53
8894;BME280;4483;48.622;9.230;2023-04-03T03:31:49;98605.44;;;4.10;80.69
8894;BME280;4483;48.622;9.230;2023-04-03T03:34:16;98600.31;;;4.10;81.00
8894;BME280;4483;48.622;9.230;2023-04-03T03:36:43;98606.25;;;4.09;80.13
8894;BME280;4483;48.622;9.230;2023-04-03T03:39:10;98606.28;;;4.04;80.76
8894;BME280;4483;48.622;9.230;2023-04-03T03:41:36;98602.84;;;4.07;80.82
8894;BME280;4483;48.622;9.230;2023-04-03T03:44:03;98602.88;;;4.05;80.84
8894;BME280;4483;48.622;9.230;2023-04-03T03:46:30;98598.63;;;4.04;80.77
8894;BME280;4483;48.622;9.230;2023-04-03T03:48:58;98590.16;;;4.01;81.27
8894;BME280;4483;48.622;9.230;2023-04-03T03:51:24;98596.94;;;4.08;81.18
8894;BME280;4483;48.622;9.230;2023-04-03T03:53:51;98598.59;;;4.09;81.38
8894;BME280;4483;48.622;9.230;2023-04-03T03:56:18;98596.94;;;4.08;80.84
8894;BME280;4483;48.622;9.230;2023-04-03T03:58:45;98596.94;;;4.08;80.77
8894;BME280;4483;48.622;9.230;2023-04-03T04:01:12;98602.88;;;4.05;80.53
8894;BME280;4483;48.622;9.230;2023-04-03T04:03:38;98607.13;;;4.05;80.60
8894;BME280;4483;48.622;9.230;2023-04-03T04:06:07;98601.19;;;4.01;80.61
8894;BME280;4483;48.622;9.230;2023-04-03T04:08:33;98603.72;;;4.03;80.51
8894;BME280;4483;48.622;9.230;2023-04-03T04:11:00;98599.50;;;4.00;80.69
8894;BME280;4483;48.622;9.230;2023-04-03T04:13:26;98604.59;;;3.99;81.11
8894;BME280;4483;48.622;9.230;2023-04-03T04:15:53;98602.88;;;4.04;81.22
8894;BME280;4483;48.622;9.230;2023-04-03T04:18:20;98603.72;;;4.03;80.80
8894;BME280;4483;48.622;9.230;2023-04-03T04:20:47;98607.13;;;4.05;80.66
8894;BME280;4483;48.622;9.230;2023-04-03T04:23:16;98605.41;;;4.07;80.62
8894;BME280;4483;48.622;9.230;2023-04-03T04:25:44;98605.44;;;4.04;80.91
8894;BME280;4483;48.622;9.230;2023-04-03T04:28:11;98606.28;;;3.98;79.69
8894;BME280;4483;48.622;9.230;2023-04-03T04:30:37;98599.50;;;3.94;79.76
8894;BME280;4483;48.622;9.230;2023-04-03T04:33:04;98599.50;;;3.94;80.12
8894;BME280;4483;48.622;9.230;2023-04-03T04:35:32;98596.09;;;3.94;79.65
8894;BME280;4483;48.622;9.230;2023-04-03T04:37:58;98596.97;;;3.93;79.97
8894;BME280;4483;48.622;9.230;2023-04-03T04:40:26;98590.16;;;3.95;80.03
8894;BME280;4483;48.622;9.230;2023-04-03T04:42:53;98604.59;;;3.97;79.80
8894;BME280;4483;48.622;9.230;2023-04-03T04:45:20;98603.75;;;3.95;79.34
8894;BME280;4483;48.622;9.230;2023-04-03T04:47:47;98604.59;;;3.96;79.22
8894;BME280;4483;48.622;9.230;2023-04-03T04:50:16;98596.09;;;3.97;79.35
8894;BME280;4483;48.622;9.230;2023-04-03T04:52:43;98612.25;;;3.99;78.47
8894;BME280;4483;48.622;9.230;2023-04-03T04:55:10;98607.13;;;3.97;77.53
8894;BME280;4483;48.622;9.230;2023-04-03T04:57:38;98609.69;;;3.97;77.84
8894;BME280;4483;48.622;9.230;2023-04-03T05:00:06;98605.44;;;3.98;77.15
8894;BME280;4483;48.622;9.230;2023-04-03T05:02:33;98613.97;;;3.97;76.45
8894;BME280;4483;48.622;9.230;2023-04-03T05:04:59;98613.09;;;3.95;76.01
8894;BME280;4483;48.622;9.230;2023-04-03T05:07:26;98608.00;;;3.95;76.73
8894;BME280;4483;48.622;9.230;2023-04-03T05:09:53;98611.41;;;3.98;77.24
8894;BME280;4483;48.622;9.230;2023-04-03T05:12:19;98624.13;;;4.03;77.19
8894;BME280;4483;48.622;9.230;2023-04-03T05:14:47;98624.97;;;4.05;77.25
8894;BME280;4483;48.622;9.230;2023-04-03T05:17:14;98617.31;;;4.08;77.18
8894;BME280;4483;48.622;9.230;2023-04-03T05:19:41;98621.56;;;4.10;75.41
8894;BME280;4483;48.622;9.230;2023-04-03T05:22:07;98626.66;;;4.09;76.48
8894;BME280;4483;48.622;9.230;2023-04-03T05:24:34;98622.44;;;4.08;75.11
8894;BME280;4483;48.622;9.230;2023-04-03T05:27:00;98633.47;;;4.05;75.02
8894;BME280;4483;48.622;9.230;2023-04-03T05:29:27;98627.50;;;4.05;74.53
8894;BME280;4483;48.622;9.230;2023-04-03T05:31:55;98625.84;;;4.02;72.86
8894;BME280;4483;48.622;9.230;2023-04-03T05:34:22;98632.63;;;4.08;74.80
8894;BME280;4483;48.622;9.230;2023-04-03T05:36:48;98633.47;;;4.10;75.00
8894;BME280;4483;48.622;9.230;2023-04-03T05:39:15;98635.13;;;4.14;75.08
8894;BME280;4483;48.622;9.230;2023-04-03T05:41:42;98630.03;;;4.19;74.25
8894;BME280;4483;48.622;9.230;2023-04-03T05:44:08;98625.78;;;4.22;73.90
8894;BME280;4483;48.622;9.230;2023-04-03T05:46:35;98630.84;;;4.25;72.01
8894;BME280;4483;48.622;9.230;2023-04-03T05:49:03;98624.06;;;4.24;72.29
8894;BME280;4483;48.622;9.230;2023-04-03T05:51:33;98634.28;;;4.24;71.38
8894;BME280;4483;48.622;9.230;2023-04-03T05:54:03;98637.69;;;4.25;71.22
8894;BME280;4483;48.622;9.230;2023-04-03T05:56:32;98641.06;;;4.28;71.34
8894;BME280;4483;48.622;9.230;2023-04-03T05:58:59;98638.44;;;4.42;72.82
8894;BME280;4483;48.622;9.230;2023-04-03T06:01:25;98653.78;;;4.40;71.25
8894;BME280;4483;48.622;9.230;2023-04-03T06:03:52;98647.81;;;4.44;71.98
8894;BME280;4483;48.622;9.230;2023-04-03T06:06:20;98647.84;;;4.41;70.86
8894;BME280;4483;48.622;9.230;2023-04-03T06:08:47;98651.22;;;4.42;71.54
8894;BME280;4483;48.622;9.230;2023-04-03T06:11:14;98661.41;;;4.48;72.18
8894;BME280;4483;48.622;9.230;2023-04-03T06:13:41;98659.69;;;4.45;72.00
8894;BME280;4483;48.622;9.230;2023-04-03T06:16:09;98659.69;;;4.45;72.21
8894;BME280;4483;48.622;9.230;2023-04-03T06:18:35;98662.28;;;4.41;71.95
8894;BME280;4483;48.622;9.230;2023-04-03T06:21:03;98661.44;;;4.37;71.37
8894;BME280;4483;48.622;9.230;2023-04-03T06:23:32;98655.47;;;4.40;72.25
8894;BME280;4483;48.622;9.230;2023-04-03T06:25:59;98662.25;;;4.44;72.19
8894;BME280;4483;48.622;9.230;2023-04-03T06:28:26;98661.41;;;4.46;71.45
8894;BME280;4483;48.622;9.230;2023-04-03T06:30:52;98655.47;;;4.43;71.68
8894;BME280;4483;48.622;9.230;2023-04-03T06:33:19;98663.13;;;4.44;71.11
8894;BME280;4483;48.622;9.230;2023-04-03T06:35:45;98667.38;;;4.48;71.57
8894;BME280;4483;48.622;9.230;2023-04-03T06:38:12;98658.81;;;4.51;71.20
8894;BME280;4483;48.622;9.230;2023-04-03T06:40:40;98672.47;;;4.50;71.07
8894;BME280;4483;48.622;9.230;2023-04-03T06:43:07;98667.34;;;4.53;70.66
8894;BME280;4483;48.622;9.230;2023-04-03T06:45:33;98667.31;;;4.59;71.35
8894;BME280;4483;48.622;9.230;2023-04-03T06:48:01;98674.09;;;4.66;70.81
8894;BME280;4483;48.622;9.230;2023-04-03T06:50:28;98667.28;;;4.63;69.35
8894;BME280;4483;48.622;9.230;2023-04-03T06:52:54;98665.53;;;4.79;70.03
8894;BME280;4483;48.622;9.230;2023-04-03T06:55:21;98673.19;;;4.77;70.03
8894;BME280;4483;48.622;9.230;2023-04-03T06:57:49;98672.31;;;4.78;68.97
8894;BME280;4483;48.622;9.230;2023-04-03T07:00:17;98677.38;;;4.87;69.36
8894;BME280;4483;48.622;9.230;2023-04-03T07:02:43;98676.50;;;4.97;69.81
8894;BME280;4483;48.622;9.230;2023-04-03T07:05:10;98674.75;;;5.02;69.53
8894;BME280;4483;48.622;9.230;2023-04-03T07:07:37;98673.00;;;5.12;69.42
8894;BME280;4483;48.622;9.230;2023-04-03T07:10:05;98676.41;;;5.16;68.83
8894;BME280;4483;48.622;9.230;2023-04-03T07:12:32;98671.25;;;5.20;69.57
8894;BME280;4483;48.622;9.230;2023-04-03T07:15:00;98678.88;;;5.28;68.78
8894;BME280;4483;48.622;9.230;2023-04-03T07:17:28;98681.38;;;5.34;69.27
8894;BME280;4483;48.622;9.230;2023-04-03T07:19:55;98686.47;;;5.37;69.05
8894;BME280;4483;48.622;9.230;2023-04-03T07:25:43;98687.31;;;5.42;68.83
8894;BME280;4483;48.622;9.230;2023-04-03T07:28:10;98683.88;;;5.43;67.42
8894;BME280;4483;48.622;9.230;2023-04-03T07:30:43;98691.50;;;5.46;67.74
8894;BME280;4483;48.622;9.230;2023-04-03T07:33:10;98688.88;;;5.58;69.12
8894;BME280;4483;48.622;9.230;2023-04-03T07:35:38;98695.66;;;5.63;67.45
8894;BME280;4483;48.622;9.230;2023-04-03T07:38:05;98678.69;;;5.56;67.31
8894;BME280;4483;48.622;9.230;2023-04-03T07:40:32;98691.38;;;5.67;67.18
8894;BME280;4483;48.622;9.230;2023-04-03T07:42:58;98685.38;;;5.71;66.90
8894;BME280;4483;48.622;9.230;2023-04-03T07:45:25;98688.72;;;5.83;67.93
8894;BME280;4483;48.622;9.230;2023-04-03T07:47:53;98694.56;;;5.97;67.56
8894;BME280;4483;48.622;9.230;2023-04-03T07:50:20;98700.47;;;6.05;66.80
8894;BME280;4483;48.622;9.230;2023-04-03T07:52:47;98695.28;;;6.12;66.99
8894;BME280;4483;48.622;9.230;2023-04-03T07:55:16;98698.59;;;6.23;66.23
8894;BME280;4483;48.622;9.230;2023-04-03T07:57:43;98700.19;;;6.33;65.41
8894;BME280;4483;48.622;9.230;2023-04-03T08:00:10;98691.53;;;6.46;66.37
8894;BME280;4483;48.622;9.230;2023-04-03T08:02:37;98694.84;;;6.55;66.19
8894;BME280;4483;48.622;9.230;2023-04-03T08:05:06;98692.16;;;6.64;65.76
8894;BME280;4483;48.622;9.230;2023-04-03T08:07:32;98700.56;;;6.77;65.64
8894;BME280;4483;48.622;9.230;2023-04-03T08:09:59;98702.16;;;6.84;64.71
8894;BME280;4483;48.622;9.230;2023-04-03T08:12:26;98696.16;;;6.85;64.55
8894;BME280;4483;48.622;9.230;2023-04-03T08:14:53;98701.31;;;6.83;64.64
8894;BME280;4483;48.622;9.230;2023-04-03T08:17:20;98703.03;;;6.84;63.57
8894;BME280;4483;48.622;9.230;2023-04-03T08:19:47;98704.69;;;6.88;64.62
8894;BME280;4483;48.622;9.230;2023-04-03T08:22:15;98699.41;;;7.00;64.58
8894;BME280;4483;48.622;9.230;2023-04-03T08:24:41;98697.72;;;6.98;63.40
8894;BME280;4483;48.622;9.230;2023-04-03T08:27:08;98707.97;;;6.96;63.31
8894;BME280;4483;48.622;9.230;2023-04-03T08:29:35;98707.78;;;7.13;64.34
8894;BME280;4483;48.622;9.230;2023-04-03T08:32:03;98709.25;;;7.29;63.19
8894;BME280;4483;48.622;9.230;2023-04-03T08:34:30;98700.53;;;7.41;63.88
8894;BME280;4483;48.622;9.230;2023-04-03T08:37:00;98708.16;;;7.47;61.94
8894;BME280;4483;48.622;9.230;2023-04-03T08:39:28;98703.06;;;7.44;60.94
8894;BME280;4483;48.622;9.230;2023-04-03T08:41:57;98712.28;;;7.55;61.66
8894;BME280;4483;48.622;9.230;2023-04-03T08:44:36;98703.41;;;7.77;62.12
8894;BME280;4483;48.622;9.230;2023-04-03T08:47:12;98704.25;;;7.78;61.21
8894;BME280;4483;48.622;9.230;2023-04-03T08:49:43;98710.94;;;7.88;60.17
8894;BME280;4483;48.622;9.230;2023-04-03T08:52:15;98704.81;;;7.96;61.03
8894;BME280;4483;48.622;9.230;2023-04-03T08:54:50;98702.06;;;8.07;60.91
8894;BME280;4483;48.622;9.230;2023-04-03T08:57:23;98709.38;;;8.30;59.83
8894;BME280;4483;48.622;9.230;2023-04-03T08:59:52;98705.63;;;8.49;60.85
8894;BME280;4483;48.622;9.230;2023-04-03T09:02:25;98713.38;;;8.44;59.33
8894;BME280;4483;48.622;9.230;2023-04-03T09:04:55;98711.09;;;8.31;59.00
8894;BME280;4483;48.622;9.230;2023-04-03T09:07:25;98705.09;;;8.30;58.63
8894;BME280;4483;48.622;9.230;2023-04-03T09:09:56;98705.84;;;8.37;59.22
8894;BME280;4483;48.622;9.230;2023-04-03T09:12:27;98704.78;;;8.47;59.54
8894;BME280;4483;48.622;9.230;2023-04-03T09:15:02;98710.66;;;8.55;59.70
8894;BME280;4483;48.622;9.230;2023-04-03T09:17:41;98704.47;;;8.63;58.82
8894;BME280;4483;48.622;9.230;2023-04-03T09:20:19;98699.66;;;8.47;57.05
8894;BME280;4483;48.622;9.230;2023-04-03T09:22:50;98714.25;;;8.45;57.96
8894;BME280;4483;48.622;9.230;2023-04-03T09:25:21;98699.91;;;8.35;57.15
8894;BME280;4483;48.622;9.230;2023-04-03T09:27:48;98700.78;;;8.32;57.97
8894;BME280;4483;48.622;9.230;2023-04-03T09:30:17;98711.06;;;8.32;57.60
8894;BME280;4483;48.622;9.230;2023-04-03T09:32:45;98711.44;;;8.08;58.41
8894;BME280;4483;48.622;9.230;2023-04-03T09:35:19;98713.47;;;7.91;58.29
8894;BME280;4483;48.622;9.230;2023-04-03T09:37:48;98712.78;;;7.80;58.48
8894;BME280;4483;48.622;9.230;2023-04-03T09:40:34;98713.59;;;7.80;58.10
8894;BME280;4483;48.622;9.230;2023-04-03T09:43:20;98710.09;;;7.86;57.46
8894;BME280;4483;48.622;9.230;2023-04-03T09:45:48;98716.97;;;7.85;58.13
8894;BME280;4483;48.622;9.230;2023-04-03T09:48:17;98710.13;;;7.84;57.66
8894;BME280;4483;48.622;9.230;2023-04-03T09:50:59;98711.06;;;7.79;56.68
8894;BME280;4483;48.622;9.230;2023-04-03T09:53:35;98707.00;;;7.66;57.32
8894;BME280;4483;48.622;9.230;2023-04-03T09:56:17;98713.78;;;7.70;57.56
8894;BME280;4483;48.622;9.230;2023-04-03T09:58:48;98718.00;;;7.74;58.20
8894;BME280;4483;48.622;9.230;2023-04-03T10:01:25;98708.31;;;7.89;58.38
8894;BME280;4483;48.622;9.230;2023-04-03T10:04:08;98710.06;;;7.89;56.65
8894;BME280;4483;48.622;9.230;2023-04-03T10:06:38;98703.28;;;7.85;54.83
8894;BME280;4483;48.622;9.230;2023-04-03T10:09:17;98711.75;;;7.90;56.29
8894;BME280;4483;48.622;9.230;2023-04-03T10:11:58;98696.16;;;8.00;55.90
8894;BME280;4483;48.622;9.230;2023-04-03T10:14:24;98700.41;;;8.03;56.20
8894;BME280;4483;48.622;9.230;2023-04-03T10:16:54;98700.41;;;8.03;55.98
8894;BME280;4483;48.622;9.230;2023-04-03T10:19:34;98702.00;;;8.10;54.08
8894;BME280;4483;48.622;9.230;2023-04-03T10:22:09;98698.84;;;7.96;51.93
8894;BME280;4483;48.622;9.230;2023-04-03T10:24:48;98692.94;;;7.89;52.43
8894;BME280;4483;48.622;9.230;2023-04-03T10:27:24;98693.63;;;7.99;53.09
8894;BME280;4483;48.622;9.230;2023-04-03T10:29:56;98697.75;;;8.09;52.67
8894;BME280;4483;48.622;9.230;2023-04-03T10:32:37;98686.38;;;8.25;53.33
8894;BME280;4483;48.622;9.230;2023-04-03T10:35:14;98679.16;;;8.45;53.09
8894;BME280;4483;48.622;9.230;2023-04-03T10:37:52;98685.19;;;8.43;49.29
8894;BME280;4483;48.622;9.230;2023-04-03T10:40:27;98690.44;;;8.37;49.44
8894;BME280;4483;48.622;9.230;2023-04-03T10:43:04;98688.72;;;8.36;49.87
8894;BME280;4483;48.622;9.230;2023-04-03T10:45:53;98684.84;;;8.12;48.79
8894;BME280;4483;48.622;9.230;2023-04-03T10:48:33;98694.19;;;8.16;50.33
8894;BME280;4483;48.622;9.230;2023-04-03T10:51:16;98686.59;;;8.10;48.86
8894;BME280;4483;48.622;9.230;2023-04-03T10:53:52;98688.25;;;8.14;49.26
8894;BME280;4483;48.622;9.230;2023-04-03T10:56:30;98686.53;;;8.13;48.00
8894;BME280;4483;48.622;9.230;2023-04-03T10:59:08;98697.03;;;8.01;47.88
8894;BME280;4483;48.622;9.230;2023-04-03T11:01:41;98695.41;;;7.95;48.72
8894;BME280;4483;48.622;9.230;2023-04-03T11:04:10;98695.38;;;7.97;49.64
8894;BME280;4483;48.622;9.230;2023-04-03T11:06:41;98689.91;;;8.18;49.99
8894;BME280;4483;48.622;9.230;2023-04-03T11:09:19;98684.53;;;8.33;50.43
8894;BME280;4483;48.622;9.230;2023-04-03T11:11:48;98684.38;;;8.39;50.64
8894;BME280;4483;48.622;9.230;2023-04-03T11:14:25;98674.97;;;8.40;50.84
8894;BME280;4483;48.622;9.230;2023-04-03T11:17:10;98683.47;;;8.43;50.89
8894;BME280;4483;48.622;9.230;2023-04-03T11:19:42;98679.97;;;8.47;50.45
8894;BME280;4483;48.622;9.230;2023-04-03T11:22:17;98680.19;;;8.35;51.18
8894;BME280;4483;48.622;9.230;2023-04-03T11:24:55;98677.59;;;8.35;50.29
8894;BME280;4483;48.622;9.230;2023-04-03T11:27:24;98678.63;;;8.27;49.50
8894;BME280;4483;48.622;9.230;2023-04-03T11:29:54;98682.09;;;8.23;51.67
8894;BME280;4483;48.622;9.230;2023-04-03T11:32:37;98676.03;;;8.28;53.07
8894;BME280;4483;48.622;9.230;2023-04-03T11:35:08;98667.31;;;8.38;52.22
8894;BME280;4483;48.622;9.230;2023-04-03T11:37:39;98676.47;;;8.51;52.67
8894;BME280;4483;48.622;9.230;2023-04-03T11:40:08;98672.94;;;8.57;53.72
8894;BME280;4483;48.622;9.230;2023-04-03T11:42:47;98670.38;;;8.55;52.13
8894;BME280;4483;48.622;9.230;2023-04-03T11:45:36;98676.38;;;8.56;52.51
8894;BME280;4483;48.622;9.230;2023-04-03T11:48:04;98671.13;;;8.62;52.36
8894;BME280;4483;48.622;9.230;2023-04-03T11:50:42;98666.69;;;8.68;52.74
8894;BME280;4483;48.622;9.230;2023-04-03T11:53:40;98668.31;;;8.72;52.24
8894;BME280;4483;48.622;9.230;2023-04-03T11:56:28;98657.19;;;8.72;51.63
8894;BME280;4483;48.622;9.230;2023-04-03T11:59:15;98664.13;;;8.68;49.46
8894;BME280;4483;48.622;9.230;2023-04-03T12:01:46;98662.03;;;8.46;49.21
8894;BME280;4483;48.622;9.230;2023-04-03T12:04:14;98657.13;;;8.32;50.46
8894;BME280;4483;48.622;9.230;2023-04-03T12:09:56;98655.88;;;8.53;51.00
8894;BME280;4483;48.622;9.230;2023-04-03T12:12:37;98663.44;;;8.60;51.22
8894;BME280;4483;48.622;9.230;2023-04-03T12:18:42;98649.69;;;8.63;50.21
8894;BME280;4483;48.622;9.230;2023-04-03T12:21:09;98652.13;;;8.69;49.28
8894;BME280;4483;48.622;9.230;2023-04-03T12:23:37;98651.34;;;8.65;49.37
8894;BME280;4483;48.622;9.230;2023-04-03T12:26:24;98650.94;;;8.85;50.14
8894;BME280;4483;48.622;9.230;2023-04-03T12:28:53;98651.50;;;8.97;50.52
8894;BME280;4483;48.622;9.230;2023-04-03T12:31:24;98645.31;;;9.07;50.57
8894;BME280;4483;48.622;9.230;2023-04-03T12:34:12;98644.22;;;9.18;50.87
8894;BME280;4483;48.622;9.230;2023-04-03T12:36:50;98648.41;;;9.22;49.87
8894;BME280;4483;48.622;9.230;2023-04-03T12:39:41;98638.41;;;9.09;49.03
8894;BME280;4483;48.622;9.230;2023-04-03T12:42:18;98635.78;;;9.12;50.41
8894;BME280;4483;48.622;9.230;2023-04-03T12:44:57;98643.47;;;9.12;48.25
8894;BME280;4483;48.622;9.230;2023-04-03T12:47:28;98643.59;;;9.06;49.43
8894;BME280;4483;48.622;9.230;2023-04-03T12:49:59;98648.94;;;8.97;48.94
8894;BME280;4483;48.622;9.230;2023-04-03T12:52:33;98631.16;;;8.88;49.28
8894;BME280;4483;48.622;9.230;2023-04-03T12:55:03;98636.53;;;8.78;49.07
8894;BME280;4483;48.622;9.230;2023-04-03T12:57:35;98640.34;;;8.60;48.86
8894;BME280;4483;48.622;9.230;2023-04-03T13:03:06;98634.50;;;8.52;48.80
8894;BME280;4483;48.622;9.230;2023-04-03T13:05:34;98627.16;;;8.34;47.92
8894;BME280;4483;48.622;9.230;2023-04-03T13:08:04;98640.88;;;8.32;48.48
8894;BME280;4483;48.622;9.230;2023-04-03T13:10:32;98631.28;;;8.41;48.78
8894;BME280;4483;48.622;9.230;2023-04-03T13:13:09;98635.56;;;8.42;48.56
8894;BME280;4483;48.622;9.230;2023-04-03T13:15:42;98625.97;;;8.50;48.13
8894;BME280;4483;48.622;9.230;2023-04-03T13:18:22;98631.69;;;8.64;48.78
8894;BME280;4483;48.622;9.230;2023-04-03T13:20:50;98625.56;;;8.70;48.59
8894;BME280;4483;48.622;9.230;2023-04-03T13:23:18;98629.56;;;8.84;48.77
8894;BME280;4483;48.622;9.230;2023-04-03T13:25:48;98627.66;;;8.92;47.69
8894;BME280;4483;48.622;9.230;2023-04-03T13:28:19;98625.16;;;8.89;47.63
8894;BME280;4483;48.622;9.230;2023-04-03T13:30:56;98623.44;;;8.90;48.00
8894;BME280;4483;48.622;9.230;2023-04-03T13:33:25;98627.97;;;8.79;47.58
8894;BME280;4483;48.622;9.230;2023-04-03T13:36:00;98624.09;;;8.58;46.51
8894;BME280;4483;48.622;9.230;2023-04-03T13:38:30;98627.78;;;8.45;46.91
8894;BME280;4483;48.622;9.230;2023-04-03T13:41:00;98621.31;;;8.26;46.98
8894;BME280;4483;48.622;9.230;2023-04-03T13:43:29;98626.53;;;8.20;47.59
8894;BME280;4483;48.622;9.230;2023-04-03T13:46:04;98622.16;;;8.27;48.63
8894;BME280;4483;48.622;9.230;2023-04-03T13:48:37;98625.44;;;8.35;47.50
8894;BME280;4483;48.622;9.230;2023-04-03T13:51:21;98621.09;;;8.38;46.80
8894;BME280;4483;48.622;9.230;2023-04-03T13:53:50;98618.47;;;8.40;46.63
8894;BME280;4483;48.622;9.230;2023-04-03T13:56:21;98606.59;;;8.75;46.51
8894;BME280;4483;48.622;9.230;2023-04-03T13:59:20;98613.69;;;9.04;46.49
8894;BME280;4483;48.622;9.230;2023-04-03T14:01:50;98619.69;;;9.03;46.13
8894;BME280;4483;48.622;9.230;2023-04-03T14:04:20;98610.75;;;8.82;46.03